sensor_id;sensor_type;location;lat;lon;timestamp;P1;durP1;ratioP1;P2;durP2;ratioP2
41663;SDS011;27353;50.906;7.248;2022-12-10T00:02:05;33.65;;;23.77;;
41663;SDS011;27353;50.906;7.248;2022-12-10T00:04:30;38.92;;;26.33;;
41663;SDS011;27353;50.906;7.248;2022-12-10T00:06:56;38.15;;;25.38;;
41663;SDS011;27353;50.906;7.248;2022-12-10T00:09:21;45.38;;;26.60;;
41663;SDS011;27353;50.906;7.248;2022-12-10T00:11:47;33.50;;;24.38;;
41663;SDS011;27353;50.906;7.248;2022-12-10T00:14:13;39.00;;;26.80;;
41663;SDS011;27353;50.906;7.248;2022-12-10T00:16:39;35.47;;;25.25;;
41663;SDS011;27353;50.906;7.248;2022-12-10T00:19:05;41.67;;;27.67;;
41663;SDS011;27353;50.906;7.248;2022-12-10T00:21:32;42.55;;;26.77;;
41663;SDS011;27353;50.906;7.248;2022-12-10T00:23:59;40.13;;;26.42;;
41663;SDS011;27353;50.906;7.248;2022-12-10T00:26:35;39.10;;;25.42;;
41663;SDS011;27353;50.906;7.248;2022-12-10T00:29:02;47.58;;;29.13;;
41663;SDS011;27353;50.906;7.248;2022-12-10T00:31:31;45.10;;;26.85;;
41663;SDS011;27353;50.906;7.248;2022-12-10T00:33:59;40.40;;;25.92;;
41663;SDS011;27353;50.906;7.248;2022-12-10T00:36:34;33.35;;;25.20;;
41663;SDS011;27353;50.906;7.248;2022-12-10T00:41:45;43.72;;;27.35;;
41663;SDS011;27353;50.906;7.248;2022-12-10T00:44:11;30.33;;;24.08;;
41663;SDS011;27353;50.906;7.248;2022-12-10T00:46:37;39.60;;;25.00;;
41663;SDS011;27353;50.906;7.248;2022-12-10T00:49:03;39.55;;;26.98;;
41663;SDS011;27353;50.906;7.248;2022-12-10T00:51:28;39.92;;;25.95;;
41663;SDS011;27353;50.906;7.248;2022-12-10T00:53:55;38.28;;;24.50;;
41663;SDS011;27353;50.906;7.248;2022-12-10T00:56:23;38.92;;;25.15;;
41663;SDS011;27353;50.906;7.248;2022-12-10T00:58:50;40.28;;;26.30;;
41663;SDS011;27353;50.906;7.248;2022-12-10T01:01:23;46.92;;;27.48;;
41663;SDS011;27353;50.906;7.248;2022-12-10T01:03:55;38.10;;;24.67;;
41663;SDS011;27353;50.906;7.248;2022-12-10T01:06:23;41.17;;;27.20;;
41663;SDS011;27353;50.906;7.248;2022-12-10T01:08:51;38.63;;;25.88;;
41663;SDS011;27353;50.906;7.248;2022-12-10T01:11:18;45.95;;;29.42;;
41663;SDS011;27353;50.906;7.248;2022-12-10T01:13:46;35.78;;;25.15;;
41663;SDS011;27353;50.906;7.248;2022-12-10T01:16:13;44.10;;;26.80;;
41663;SDS011;27353;50.906;7.248;2022-12-10T01:18:41;36.60;;;25.13;;
41663;SDS011;27353;50.906;7.248;2022-12-10T01:21:08;38.50;;;25.20;;
41663;SDS011;27353;50.906;7.248;2022-12-10T01:26:06;32.20;;;23.25;;
41663;SDS011;27353;50.906;7.248;2022-12-10T01:28:34;36.50;;;23.45;;
41663;SDS011;27353;50.906;7.248;2022-12-10T01:31:02;37.92;;;25.73;;
41663;SDS011;27353;50.906;7.248;2022-12-10T01:33:30;30.42;;;25.08;;
41663;SDS011;27353;50.906;7.248;2022-12-10T01:35:56;40.10;;;27.55;;
41663;SDS011;27353;50.906;7.248;2022-12-10T01:38:26;42.75;;;25.95;;
41663;SDS011;27353;50.906;7.248;2022-12-10T01:40:52;42.13;;;25.25;;
41663;SDS011;27353;50.906;7.248;2022-12-10T01:43:17;39.22;;;25.92;;
41663;SDS011;27353;50.906;7.248;2022-12-10T01:45:43;41.58;;;27.70;;
41663;SDS011;27353;50.906;7.248;2022-12-10T01:48:09;36.85;;;25.23;;
41663;SDS011;27353;50.906;7.248;2022-12-10T01:50:34;42.67;;;25.70;;
41663;SDS011;27353;50.906;7.248;2022-12-10T01:53:00;40.78;;;25.58;;
41663;SDS011;27353;50.906;7.248;2022-12-10T01:58:13;49.28;;;28.48;;
41663;SDS011;27353;50.906;7.248;2022-12-10T02:01:03;36.38;;;24.30;;
41663;SDS011;27353;50.906;7.248;2022-12-10T02:03:34;35.60;;;23.83;;
41663;SDS011;27353;50.906;7.248;2022-12-10T02:11:41;43.65;;;25.17;;
41663;SDS011;27353;50.906;7.248;2022-12-10T02:17:14;38.65;;;26.10;;
41663;SDS011;27353;50.906;7.248;2022-12-10T02:19:44;34.63;;;25.58;;
41663;SDS011;27353;50.906;7.248;2022-12-10T02:22:54;38.22;;;24.13;;
41663;SDS011;27353;50.906;7.248;2022-12-10T02:30:58;43.50;;;25.85;;
41663;SDS011;27353;50.906;7.248;2022-12-10T02:33:25;39.85;;;26.38;;
41663;SDS011;27353;50.906;7.248;2022-12-10T02:35:52;44.92;;;25.17;;
41663;SDS011;27353;50.906;7.248;2022-12-10T02:38:41;38.90;;;24.63;;
41663;SDS011;27353;50.906;7.248;2022-12-10T02:41:07;36.80;;;24.30;;
41663;SDS011;27353;50.906;7.248;2022-12-10T02:43:41;36.58;;;22.55;;
41663;SDS011;27353;50.906;7.248;2022-12-10T02:46:10;43.03;;;26.30;;
41663;SDS011;27353;50.906;7.248;2022-12-10T02:48:36;41.40;;;25.20;;
41663;SDS011;27353;50.906;7.248;2022-12-10T02:51:03;46.80;;;26.60;;
41663;SDS011;27353;50.906;7.248;2022-12-10T02:53:29;43.10;;;27.73;;
41663;SDS011;27353;50.906;7.248;2022-12-10T03:02:13;35.47;;;23.42;;
41663;SDS011;27353;50.906;7.248;2022-12-10T03:07:17;39.60;;;25.08;;
41663;SDS011;27353;50.906;7.248;2022-12-10T03:09:51;31.27;;;23.77;;
41663;SDS011;27353;50.906;7.248;2022-12-10T03:12:39;40.10;;;25.65;;
41663;SDS011;27353;50.906;7.248;2022-12-10T03:15:09;36.03;;;24.02;;
41663;SDS011;27353;50.906;7.248;2022-12-10T03:17:36;36.70;;;24.98;;
41663;SDS011;27353;50.906;7.248;2022-12-10T03:20:06;37.70;;;25.17;;
41663;SDS011;27353;50.906;7.248;2022-12-10T03:22:36;37.80;;;26.30;;
41663;SDS011;27353;50.906;7.248;2022-12-10T03:25:06;41.15;;;26.77;;
41663;SDS011;27353;50.906;7.248;2022-12-10T03:27:34;34.03;;;24.20;;
41663;SDS011;27353;50.906;7.248;2022-12-10T03:30:04;32.33;;;24.90;;
41663;SDS011;27353;50.906;7.248;2022-12-10T03:32:30;35.05;;;23.13;;
41663;SDS011;27353;50.906;7.248;2022-12-10T03:34:57;38.80;;;23.88;;
41663;SDS011;27353;50.906;7.248;2022-12-10T03:37:25;32.13;;;23.90;;
41663;SDS011;27353;50.906;7.248;2022-12-10T03:39:52;35.72;;;24.98;;
41663;SDS011;27353;50.906;7.248;2022-12-10T03:42:17;37.25;;;26.27;;
41663;SDS011;27353;50.906;7.248;2022-12-10T03:44:43;33.55;;;25.48;;
41663;SDS011;27353;50.906;7.248;2022-12-10T03:47:10;35.20;;;22.50;;
41663;SDS011;27353;50.906;7.248;2022-12-10T03:49:38;30.75;;;23.48;;
41663;SDS011;27353;50.906;7.248;2022-12-10T03:52:03;32.05;;;24.38;;
41663;SDS011;27353;50.906;7.248;2022-12-10T03:54:29;40.92;;;25.98;;
41663;SDS011;27353;50.906;7.248;2022-12-10T03:56:55;34.67;;;21.60;;
41663;SDS011;27353;50.906;7.248;2022-12-10T03:59:20;34.72;;;27.30;;
41663;SDS011;27353;50.906;7.248;2022-12-10T04:01:46;33.00;;;24.90;;
41663;SDS011;27353;50.906;7.248;2022-12-10T04:04:12;39.13;;;23.90;;
41663;SDS011;27353;50.906;7.248;2022-12-10T04:06:38;37.55;;;24.75;;
41663;SDS011;27353;50.906;7.248;2022-12-10T04:09:05;31.58;;;23.80;;
41663;SDS011;27353;50.906;7.248;2022-12-10T04:11:31;34.92;;;25.55;;
41663;SDS011;27353;50.906;7.248;2022-12-10T04:13:56;42.08;;;27.65;;
41663;SDS011;27353;50.906;7.248;2022-12-10T04:16:41;30.83;;;24.73;;
41663;SDS011;27353;50.906;7.248;2022-12-10T04:19:07;34.60;;;24.50;;
41663;SDS011;27353;50.906;7.248;2022-12-10T04:21:38;36.08;;;22.60;;
41663;SDS011;27353;50.906;7.248;2022-12-10T04:24:24;33.47;;;23.15;;
41663;SDS011;27353;50.906;7.248;2022-12-10T04:27:16;35.67;;;22.67;;
41663;SDS011;27353;50.906;7.248;2022-12-10T04:29:47;42.75;;;27.83;;
41663;SDS011;27353;50.906;7.248;2022-12-10T04:32:13;39.35;;;24.98;;
41663;SDS011;27353;50.906;7.248;2022-12-10T04:34:39;43.85;;;26.35;;
41663;SDS011;27353;50.906;7.248;2022-12-10T04:37:05;35.50;;;23.20;;
41663;SDS011;27353;50.906;7.248;2022-12-10T04:39:32;33.25;;;24.20;;
41663;SDS011;27353;50.906;7.248;2022-12-10T04:41:58;39.30;;;24.77;;
41663;SDS011;27353;50.906;7.248;2022-12-10T04:44:24;40.55;;;24.90;;
41663;SDS011;27353;50.906;7.248;2022-12-10T04:46:50;35.80;;;24.63;;
41663;SDS011;27353;50.906;7.248;2022-12-10T04:49:15;37.58;;;26.30;;
41663;SDS011;27353;50.906;7.248;2022-12-10T04:51:41;38.13;;;26.08;;
41663;SDS011;27353;50.906;7.248;2022-12-10T04:54:07;36.53;;;24.48;;
41663;SDS011;27353;50.906;7.248;2022-12-10T04:56:33;34.38;;;24.23;;
41663;SDS011;27353;50.906;7.248;2022-12-10T04:58:59;36.63;;;23.88;;
41663;SDS011;27353;50.906;7.248;2022-12-10T05:01:26;40.78;;;26.02;;
41663;SDS011;27353;50.906;7.248;2022-12-10T05:03:52;38.40;;;25.77;;
41663;SDS011;27353;50.906;7.248;2022-12-10T05:06:19;40.33;;;27.73;;
41663;SDS011;27353;50.906;7.248;2022-12-10T05:08:45;33.03;;;25.02;;
41663;SDS011;27353;50.906;7.248;2022-12-10T05:11:12;40.35;;;29.08;;
41663;SDS011;27353;50.906;7.248;2022-12-10T05:13:40;36.78;;;26.00;;
41663;SDS011;27353;50.906;7.248;2022-12-10T05:16:07;28.50;;;22.20;;
41663;SDS011;27353;50.906;7.248;2022-12-10T05:18:34;37.28;;;23.83;;
41663;SDS011;27353;50.906;7.248;2022-12-10T05:21:01;37.83;;;24.88;;
41663;SDS011;27353;50.906;7.248;2022-12-10T05:23:29;33.47;;;23.45;;
41663;SDS011;27353;50.906;7.248;2022-12-10T05:26:01;34.80;;;24.73;;
41663;SDS011;27353;50.906;7.248;2022-12-10T05:28:29;36.15;;;26.02;;
41663;SDS011;27353;50.906;7.248;2022-12-10T05:30:56;32.03;;;24.98;;
41663;SDS011;27353;50.906;7.248;2022-12-10T05:33:22;36.53;;;24.35;;
41663;SDS011;27353;50.906;7.248;2022-12-10T05:35:55;37.20;;;25.60;;
41663;SDS011;27353;50.906;7.248;2022-12-10T05:38:26;36.03;;;24.08;;
41663;SDS011;27353;50.906;7.248;2022-12-10T05:40:53;36.85;;;25.95;;
41663;SDS011;27353;50.906;7.248;2022-12-10T05:43:19;33.67;;;23.20;;
41663;SDS011;27353;50.906;7.248;2022-12-10T05:45:45;35.75;;;26.23;;
41663;SDS011;27353;50.906;7.248;2022-12-10T05:48:12;34.53;;;24.35;;
41663;SDS011;27353;50.906;7.248;2022-12-10T05:50:40;40.30;;;25.80;;
41663;SDS011;27353;50.906;7.248;2022-12-10T05:53:06;34.83;;;24.33;;
41663;SDS011;27353;50.906;7.248;2022-12-10T05:55:32;39.00;;;25.98;;
41663;SDS011;27353;50.906;7.248;2022-12-10T05:57:58;37.63;;;24.30;;
41663;SDS011;27353;50.906;7.248;2022-12-10T06:00:25;40.33;;;25.85;;
41663;SDS011;27353;50.906;7.248;2022-12-10T06:02:54;39.60;;;25.73;;
41663;SDS011;27353;50.906;7.248;2022-12-10T06:05:21;41.00;;;28.70;;
41663;SDS011;27353;50.906;7.248;2022-12-10T06:07:46;39.35;;;23.40;;
41663;SDS011;27353;50.906;7.248;2022-12-10T06:10:12;32.75;;;25.60;;
41663;SDS011;27353;50.906;7.248;2022-12-10T06:12:38;38.83;;;25.10;;
41663;SDS011;27353;50.906;7.248;2022-12-10T06:15:04;36.55;;;26.73;;
41663;SDS011;27353;50.906;7.248;2022-12-10T06:17:30;33.97;;;25.48;;
41663;SDS011;27353;50.906;7.248;2022-12-10T06:19:56;42.42;;;28.10;;
41663;SDS011;27353;50.906;7.248;2022-12-10T06:22:22;35.97;;;24.55;;
41663;SDS011;27353;50.906;7.248;2022-12-10T06:24:48;34.67;;;23.58;;
41663;SDS011;27353;50.906;7.248;2022-12-10T06:27:14;38.95;;;24.92;;
41663;SDS011;27353;50.906;7.248;2022-12-10T06:29:39;36.35;;;26.38;;
41663;SDS011;27353;50.906;7.248;2022-12-10T06:32:05;44.45;;;25.77;;
41663;SDS011;27353;50.906;7.248;2022-12-10T06:34:31;31.67;;;24.77;;
41663;SDS011;27353;50.906;7.248;2022-12-10T06:36:56;37.97;;;23.98;;
41663;SDS011;27353;50.906;7.248;2022-12-10T06:39:22;35.10;;;25.67;;
41663;SDS011;27353;50.906;7.248;2022-12-10T06:41:47;42.28;;;26.77;;
41663;SDS011;27353;50.906;7.248;2022-12-10T06:44:13;40.78;;;25.45;;
41663;SDS011;27353;50.906;7.248;2022-12-10T06:46:39;32.22;;;24.25;;
41663;SDS011;27353;50.906;7.248;2022-12-10T06:49:06;34.15;;;22.83;;
41663;SDS011;27353;50.906;7.248;2022-12-10T06:51:32;34.10;;;23.38;;
41663;SDS011;27353;50.906;7.248;2022-12-10T06:53:58;33.25;;;23.08;;
41663;SDS011;27353;50.906;7.248;2022-12-10T06:56:24;34.30;;;25.45;;
41663;SDS011;27353;50.906;7.248;2022-12-10T06:58:50;34.30;;;24.70;;
41663;SDS011;27353;50.906;7.248;2022-12-10T07:01:17;39.42;;;28.77;;
41663;SDS011;27353;50.906;7.248;2022-12-10T07:03:51;43.90;;;26.25;;
41663;SDS011;27353;50.906;7.248;2022-12-10T07:06:18;39.13;;;25.85;;
41663;SDS011;27353;50.906;7.248;2022-12-10T07:08:45;32.78;;;23.05;;
41663;SDS011;27353;50.906;7.248;2022-12-10T07:11:11;36.92;;;24.02;;
41663;SDS011;27353;50.906;7.248;2022-12-10T07:13:38;35.40;;;24.50;;
41663;SDS011;27353;50.906;7.248;2022-12-10T07:16:11;36.38;;;27.33;;
41663;SDS011;27353;50.906;7.248;2022-12-10T07:18:38;33.55;;;23.55;;
41663;SDS011;27353;50.906;7.248;2022-12-10T07:21:14;33.90;;;27.60;;
41663;SDS011;27353;50.906;7.248;2022-12-10T07:23:43;39.42;;;26.58;;
41663;SDS011;27353;50.906;7.248;2022-12-10T07:26:08;38.40;;;27.98;;
41663;SDS011;27353;50.906;7.248;2022-12-10T07:28:34;42.70;;;28.20;;
41663;SDS011;27353;50.906;7.248;2022-12-10T07:31:01;44.65;;;27.83;;
41663;SDS011;27353;50.906;7.248;2022-12-10T07:33:27;36.40;;;25.67;;
41663;SDS011;27353;50.906;7.248;2022-12-10T07:35:52;39.13;;;27.33;;
41663;SDS011;27353;50.906;7.248;2022-12-10T07:38:18;31.63;;;25.73;;
41663;SDS011;27353;50.906;7.248;2022-12-10T07:40:44;37.00;;;27.50;;
41663;SDS011;27353;50.906;7.248;2022-12-10T07:43:09;40.65;;;28.48;;
41663;SDS011;27353;50.906;7.248;2022-12-10T07:45:35;40.38;;;29.10;;
41663;SDS011;27353;50.906;7.248;2022-12-10T07:48:00;40.22;;;27.73;;
41663;SDS011;27353;50.906;7.248;2022-12-10T07:50:26;44.17;;;30.85;;
41663;SDS011;27353;50.906;7.248;2022-12-10T07:52:51;42.47;;;28.95;;
41663;SDS011;27353;50.906;7.248;2022-12-10T07:55:17;37.25;;;25.65;;
41663;SDS011;27353;50.906;7.248;2022-12-10T07:57:42;35.80;;;25.90;;
41663;SDS011;27353;50.906;7.248;2022-12-10T08:00:08;46.08;;;30.00;;
41663;SDS011;27353;50.906;7.248;2022-12-10T08:02:34;39.55;;;28.10;;
41663;SDS011;27353;50.906;7.248;2022-12-10T08:05:00;35.53;;;26.33;;
41663;SDS011;27353;50.906;7.248;2022-12-10T08:07:26;43.10;;;29.15;;
41663;SDS011;27353;50.906;7.248;2022-12-10T08:09:51;52.40;;;32.83;;
41663;SDS011;27353;50.906;7.248;2022-12-10T08:12:17;38.88;;;27.33;;
41663;SDS011;27353;50.906;7.248;2022-12-10T08:14:42;48.28;;;29.20;;
41663;SDS011;27353;50.906;7.248;2022-12-10T08:17:08;40.72;;;26.73;;
41663;SDS011;27353;50.906;7.248;2022-12-10T08:19:33;39.53;;;27.75;;
41663;SDS011;27353;50.906;7.248;2022-12-10T08:21:59;39.67;;;29.25;;
41663;SDS011;27353;50.906;7.248;2022-12-10T08:24:25;37.10;;;26.00;;
41663;SDS011;27353;50.906;7.248;2022-12-10T08:26:50;42.75;;;27.35;;
41663;SDS011;27353;50.906;7.248;2022-12-10T08:29:16;37.15;;;28.33;;
41663;SDS011;27353;50.906;7.248;2022-12-10T08:31:41;36.83;;;26.92;;
41663;SDS011;27353;50.906;7.248;2022-12-10T08:34:11;43.17;;;25.73;;
41663;SDS011;27353;50.906;7.248;2022-12-10T08:36:41;38.95;;;27.17;;
41663;SDS011;27353;50.906;7.248;2022-12-10T08:39:07;48.20;;;30.02;;
41663;SDS011;27353;50.906;7.248;2022-12-10T08:41:35;74.97;;;38.38;;
41663;SDS011;27353;50.906;7.248;2022-12-10T08:44:01;72.15;;;38.50;;
41663;SDS011;27353;50.906;7.248;2022-12-10T08:46:27;51.25;;;30.83;;
41663;SDS011;27353;50.906;7.248;2022-12-10T08:48:53;44.35;;;29.98;;
41663;SDS011;27353;50.906;7.248;2022-12-10T08:51:20;42.75;;;30.23;;
41663;SDS011;27353;50.906;7.248;2022-12-10T08:53:45;41.53;;;29.38;;
41663;SDS011;27353;50.906;7.248;2022-12-10T08:56:12;42.47;;;28.33;;
41663;SDS011;27353;50.906;7.248;2022-12-10T08:58:38;36.40;;;26.15;;
41663;SDS011;27353;50.906;7.248;2022-12-10T09:01:05;42.22;;;28.60;;
41663;SDS011;27353;50.906;7.248;2022-12-10T09:03:32;41.78;;;26.70;;
41663;SDS011;27353;50.906;7.248;2022-12-10T09:06:01;33.70;;;25.10;;
41663;SDS011;27353;50.906;7.248;2022-12-10T09:08:31;39.53;;;25.80;;
41663;SDS011;27353;50.906;7.248;2022-12-10T09:10:57;43.65;;;26.17;;
41663;SDS011;27353;50.906;7.248;2022-12-10T09:13:22;35.45;;;25.42;;
41663;SDS011;27353;50.906;7.248;2022-12-10T09:15:49;34.72;;;24.73;;
41663;SDS011;27353;50.906;7.248;2022-12-10T09:18:16;38.47;;;26.70;;
41663;SDS011;27353;50.906;7.248;2022-12-10T09:20:41;37.05;;;25.77;;
41663;SDS011;27353;50.906;7.248;2022-12-10T09:23:07;32.58;;;24.70;;
41663;SDS011;27353;50.906;7.248;2022-12-10T09:25:32;42.10;;;28.08;;
41663;SDS011;27353;50.906;7.248;2022-12-10T09:27:58;39.58;;;27.55;;
41663;SDS011;27353;50.906;7.248;2022-12-10T09:30:23;36.53;;;27.50;;
41663;SDS011;27353;50.906;7.248;2022-12-10T09:32:49;44.08;;;29.35;;
41663;SDS011;27353;50.906;7.248;2022-12-10T09:35:15;44.45;;;27.67;;
41663;SDS011;27353;50.906;7.248;2022-12-10T09:37:40;32.47;;;25.95;;
41663;SDS011;27353;50.906;7.248;2022-12-10T09:40:06;44.88;;;28.27;;
41663;SDS011;27353;50.906;7.248;2022-12-10T09:42:38;37.70;;;28.58;;
41663;SDS011;27353;50.906;7.248;2022-12-10T09:45:21;40.67;;;30.23;;
41663;SDS011;27353;50.906;7.248;2022-12-10T09:47:59;40.65;;;27.55;;
41663;SDS011;27353;50.906;7.248;2022-12-10T09:53:22;50.33;;;28.85;;
41663;SDS011;27353;50.906;7.248;2022-12-10T09:55:49;45.17;;;28.98;;
41663;SDS011;27353;50.906;7.248;2022-12-10T09:58:17;44.05;;;29.83;;
41663;SDS011;27353;50.906;7.248;2022-12-10T10:00:46;43.33;;;29.95;;
41663;SDS011;27353;50.906;7.248;2022-12-10T10:03:15;40.50;;;30.20;;
41663;SDS011;27353;50.906;7.248;2022-12-10T10:05:42;37.10;;;26.35;;
41663;SDS011;27353;50.906;7.248;2022-12-10T10:08:13;42.50;;;26.80;;
41663;SDS011;27353;50.906;7.248;2022-12-10T10:10:49;36.67;;;25.67;;
41663;SDS011;27353;50.906;7.248;2022-12-10T10:13:27;39.67;;;26.73;;
41663;SDS011;27353;50.906;7.248;2022-12-10T10:18:50;41.92;;;28.50;;
41663;SDS011;27353;50.906;7.248;2022-12-10T10:21:22;48.25;;;28.15;;
41663;SDS011;27353;50.906;7.248;2022-12-10T10:23:50;43.00;;;25.17;;
41663;SDS011;27353;50.906;7.248;2022-12-10T10:26:16;43.38;;;27.55;;
41663;SDS011;27353;50.906;7.248;2022-12-10T10:28:42;34.63;;;27.40;;
41663;SDS011;27353;50.906;7.248;2022-12-10T10:31:12;37.97;;;28.55;;
41663;SDS011;27353;50.906;7.248;2022-12-10T10:33:51;34.13;;;26.55;;
41663;SDS011;27353;50.906;7.248;2022-12-10T10:36:25;37.67;;;26.55;;
41663;SDS011;27353;50.906;7.248;2022-12-10T10:38:54;42.90;;;31.08;;
41663;SDS011;27353;50.906;7.248;2022-12-10T10:41:20;34.97;;;24.50;;
41663;SDS011;27353;50.906;7.248;2022-12-10T10:43:47;39.83;;;25.83;;
41663;SDS011;27353;50.906;7.248;2022-12-10T10:46:20;40.38;;;26.85;;
41663;SDS011;27353;50.906;7.248;2022-12-10T10:48:48;34.17;;;23.67;;
41663;SDS011;27353;50.906;7.248;2022-12-10T10:53:54;31.65;;;21.92;;
41663;SDS011;27353;50.906;7.248;2022-12-10T10:56:30;32.10;;;21.50;;
41663;SDS011;27353;50.906;7.248;2022-12-10T11:01:45;33.90;;;23.23;;
41663;SDS011;27353;50.906;7.248;2022-12-10T11:04:14;31.52;;;23.92;;
41663;SDS011;27353;50.906;7.248;2022-12-10T11:06:41;34.55;;;24.35;;
41663;SDS011;27353;50.906;7.248;2022-12-10T11:09:24;31.50;;;23.77;;
41663;SDS011;27353;50.906;7.248;2022-12-10T11:11:56;40.38;;;24.80;;
41663;SDS011;27353;50.906;7.248;2022-12-10T11:14:32;28.15;;;23.45;;
41663;SDS011;27353;50.906;7.248;2022-12-10T11:17:24;27.40;;;20.52;;
41663;SDS011;27353;50.906;7.248;2022-12-10T11:19:57;25.13;;;19.50;;
41663;SDS011;27353;50.906;7.248;2022-12-10T11:24:49;33.80;;;25.38;;
41663;SDS011;27353;50.906;7.248;2022-12-10T11:27:58;27.42;;;21.95;;
41663;SDS011;27353;50.906;7.248;2022-12-10T11:30:14;27.58;;;21.25;;
41663;SDS011;27353;50.906;7.248;2022-12-10T11:38:32;25.65;;;22.10;;
41663;SDS011;27353;50.906;7.248;2022-12-10T11:41:14;28.38;;;20.58;;
41663;SDS011;27353;50.906;7.248;2022-12-10T11:57:43;25.17;;;20.00;;
41663;SDS011;27353;50.906;7.248;2022-12-10T12:16:16;35.85;;;26.85;;
41663;SDS011;27353;50.906;7.248;2022-12-10T12:21:24;31.58;;;24.08;;
41663;SDS011;27353;50.906;7.248;2022-12-10T12:23:52;31.60;;;23.33;;
41663;SDS011;27353;50.906;7.248;2022-12-10T12:26:27;29.67;;;23.02;;
41663;SDS011;27353;50.906;7.248;2022-12-10T12:28:55;30.83;;;22.02;;
41663;SDS011;27353;50.906;7.248;2022-12-10T12:31:34;29.73;;;25.67;;
41663;SDS011;27353;50.906;7.248;2022-12-10T12:34:06;33.17;;;24.60;;
41663;SDS011;27353;50.906;7.248;2022-12-10T12:36:43;29.88;;;23.40;;
41663;SDS011;27353;50.906;7.248;2022-12-10T12:44:28;33.33;;;24.75;;
41663;SDS011;27353;50.906;7.248;2022-12-10T12:49:49;30.13;;;23.23;;
41663;SDS011;27353;50.906;7.248;2022-12-10T12:54:54;30.80;;;24.50;;
41663;SDS011;27353;50.906;7.248;2022-12-10T13:00:12;34.47;;;25.80;;
41663;SDS011;27353;50.906;7.248;2022-12-10T13:02:52;32.63;;;26.02;;
41663;SDS011;27353;50.906;7.248;2022-12-10T13:05:39;33.15;;;26.52;;
41663;SDS011;27353;50.906;7.248;2022-12-10T13:08:25;36.38;;;26.45;;
41663;SDS011;27353;50.906;7.248;2022-12-10T13:10:58;36.25;;;29.85;;
41663;SDS011;27353;50.906;7.248;2022-12-10T13:13:40;32.40;;;26.15;;
41663;SDS011;27353;50.906;7.248;2022-12-10T13:32:13;33.72;;;27.02;;
41663;SDS011;27353;50.906;7.248;2022-12-10T13:34:44;46.97;;;32.42;;
41663;SDS011;27353;50.906;7.248;2022-12-10T13:42:32;44.05;;;27.52;;
41663;SDS011;27353;50.906;7.248;2022-12-10T13:47:47;31.20;;;26.00;;
41663;SDS011;27353;50.906;7.248;2022-12-10T13:50:17;40.05;;;27.60;;
41663;SDS011;27353;50.906;7.248;2022-12-10T13:52:56;35.55;;;24.75;;
41663;SDS011;27353;50.906;7.248;2022-12-10T14:01:20;39.58;;;26.65;;
41663;SDS011;27353;50.906;7.248;2022-12-10T14:04:10;36.28;;;28.02;;
41663;SDS011;27353;50.906;7.248;2022-12-10T14:06:53;31.63;;;25.30;;
41663;SDS011;27353;50.906;7.248;2022-12-10T14:09:21;37.75;;;26.38;;
41663;SDS011;27353;50.906;7.248;2022-12-10T14:12:04;44.90;;;29.85;;
41663;SDS011;27353;50.906;7.248;2022-12-10T14:14:39;41.85;;;29.70;;
41663;SDS011;27353;50.906;7.248;2022-12-10T14:17:20;34.85;;;26.05;;
41663;SDS011;27353;50.906;7.248;2022-12-10T14:19:50;40.38;;;25.55;;
41663;SDS011;27353;50.906;7.248;2022-12-10T14:22:29;32.83;;;25.45;;
41663;SDS011;27353;50.906;7.248;2022-12-10T14:24:59;36.63;;;25.95;;
41663;SDS011;27353;50.906;7.248;2022-12-10T14:27:27;42.40;;;28.45;;
41663;SDS011;27353;50.906;7.248;2022-12-10T14:32:49;34.65;;;26.00;;
41663;SDS011;27353;50.906;7.248;2022-12-10T14:35:20;40.33;;;27.95;;
41663;SDS011;27353;50.906;7.248;2022-12-10T14:37:48;35.67;;;26.00;;
41663;SDS011;27353;50.906;7.248;2022-12-10T14:40:22;39.40;;;27.42;;
41663;SDS011;27353;50.906;7.248;2022-12-10T14:43:12;41.08;;;27.80;;
41663;SDS011;27353;50.906;7.248;2022-12-10T14:48:16;39.03;;;26.67;;
41663;SDS011;27353;50.906;7.248;2022-12-10T14:50:42;36.65;;;25.90;;
41663;SDS011;27353;50.906;7.248;2022-12-10T14:53:16;36.47;;;27.10;;
41663;SDS011;27353;50.906;7.248;2022-12-10T14:55:44;32.65;;;22.77;;
41663;SDS011;27353;50.906;7.248;2022-12-10T14:58:17;30.35;;;24.17;;
41663;SDS011;27353;50.906;7.248;2022-12-10T15:00:54;39.00;;;27.40;;
41663;SDS011;27353;50.906;7.248;2022-12-10T15:03:30;40.03;;;29.40;;
41663;SDS011;27353;50.906;7.248;2022-12-10T15:06:01;41.80;;;29.55;;
41663;SDS011;27353;50.906;7.248;2022-12-10T15:08:31;36.75;;;25.75;;
41663;SDS011;27353;50.906;7.248;2022-12-10T15:10:58;39.22;;;27.23;;
41663;SDS011;27353;50.906;7.248;2022-12-10T15:13:33;39.08;;;28.40;;
41663;SDS011;27353;50.906;7.248;2022-12-10T15:16:03;37.38;;;27.25;;
41663;SDS011;27353;50.906;7.248;2022-12-10T15:23:35;41.03;;;27.10;;
41663;SDS011;27353;50.906;7.248;2022-12-10T15:28:48;39.53;;;25.30;;
41663;SDS011;27353;50.906;7.248;2022-12-10T15:33:53;37.08;;;26.20;;
41663;SDS011;27353;50.906;7.248;2022-12-10T15:36:59;42.47;;;25.33;;
41663;SDS011;27353;50.906;7.248;2022-12-10T15:41:53;33.17;;;24.30;;
41663;SDS011;27353;50.906;7.248;2022-12-10T15:49:48;34.10;;;26.02;;
41663;SDS011;27353;50.906;7.248;2022-12-10T15:52:17;37.40;;;25.98;;
41663;SDS011;27353;50.906;7.248;2022-12-10T15:54:52;36.60;;;26.52;;
41663;SDS011;27353;50.906;7.248;2022-12-10T15:57:24;39.17;;;27.95;;
41663;SDS011;27353;50.906;7.248;2022-12-10T15:59:52;34.28;;;27.08;;
41663;SDS011;27353;50.906;7.248;2022-12-10T16:05:10;37.90;;;27.38;;
41663;SDS011;27353;50.906;7.248;2022-12-10T16:07:54;35.95;;;24.15;;
41663;SDS011;27353;50.906;7.248;2022-12-10T16:10:24;36.70;;;26.60;;
41663;SDS011;27353;50.906;7.248;2022-12-10T16:12:57;34.30;;;26.23;;
41663;SDS011;27353;50.906;7.248;2022-12-10T16:15:25;39.75;;;28.88;;
41663;SDS011;27353;50.906;7.248;2022-12-10T16:17:53;48.60;;;33.03;;
41663;SDS011;27353;50.906;7.248;2022-12-10T16:20:26;51.35;;;32.70;;
41663;SDS011;27353;50.906;7.248;2022-12-10T16:22:54;52.10;;;31.23;;
41663;SDS011;27353;50.906;7.248;2022-12-10T16:25:22;43.58;;;33.85;;
41663;SDS011;27353;50.906;7.248;2022-12-10T16:27:49;41.65;;;30.73;;
41663;SDS011;27353;50.906;7.248;2022-12-10T16:35:12;43.95;;;29.40;;
41663;SDS011;27353;50.906;7.248;2022-12-10T16:37:40;47.53;;;32.22;;
41663;SDS011;27353;50.906;7.248;2022-12-10T16:40:07;49.20;;;32.67;;
41663;SDS011;27353;50.906;7.248;2022-12-10T16:42:33;52.78;;;35.47;;
41663;SDS011;27353;50.906;7.248;2022-12-10T16:44:58;47.42;;;32.83;;
41663;SDS011;27353;50.906;7.248;2022-12-10T16:47:24;44.55;;;34.28;;
41663;SDS011;27353;50.906;7.248;2022-12-10T16:49:50;50.33;;;32.08;;
41663;SDS011;27353;50.906;7.248;2022-12-10T16:52:16;53.70;;;36.03;;
41663;SDS011;27353;50.906;7.248;2022-12-10T16:54:43;49.28;;;36.35;;
41663;SDS011;27353;50.906;7.248;2022-12-10T16:57:13;43.97;;;32.00;;
41663;SDS011;27353;50.906;7.248;2022-12-10T16:59:39;47.85;;;35.50;;
41663;SDS011;27353;50.906;7.248;2022-12-10T17:02:12;57.70;;;37.67;;
41663;SDS011;27353;50.906;7.248;2022-12-10T17:04:45;49.05;;;34.08;;
41663;SDS011;27353;50.906;7.248;2022-12-10T17:07:11;52.08;;;35.95;;
41663;SDS011;27353;50.906;7.248;2022-12-10T17:09:37;64.70;;;39.58;;
41663;SDS011;27353;50.906;7.248;2022-12-10T17:12:04;72.93;;;46.60;;